createdAt,value
2023-04-04T00:00:02.016Z,67.6529
2023-04-04T00:01:02.843Z,67.8775
2023-04-04T00:02:04.052Z,68.5929
2023-04-04T00:03:04.193Z,68.7206
2023-04-04T00:04:05.172Z,68.8617
2023-04-04T00:05:05.305Z,68.5247
2023-04-04T00:06:06.297Z,68.7469
2023-04-04T00:07:07.622Z,68.5668
2023-04-04T00:08:08.147Z,68.3341
2023-04-04T00:09:09.415Z,68.0711
2023-04-04T00:10:10.565Z,68.1420
2023-04-04T00:11:10.593Z,68.2919
2023-04-04T00:12:11.588Z,68.6720
2023-04-04T00:13:11.853Z,67.9826
2023-04-04T00:14:12.808Z,68.3960
2023-04-04T00:15:13.975Z,68.7038
2023-04-04T00:16:15.072Z,68.5016
2023-04-04T00:17:15.102Z,67.9568
2023-04-04T00:18:16.282Z,67.7024
2023-04-04T00:19:17.487Z,67.8605
2023-04-04T00:20:18.408Z,67.8610
2023-04-04T00:21:18.585Z,67.9645
2023-04-04T00:22:19.855Z,67.8417
2023-04-04T00:23:20.742Z,67.8504
2023-04-04T00:24:21.792Z,67.7889
2023-04-04T00:25:22.645Z,67.9350
2023-04-04T00:26:23.730Z,68.0072
2023-04-04T00:27:24.800Z,68.2848
2023-04-04T00:28:25.714Z,67.8202
2023-04-04T00:29:26.746Z,67.7442
2023-04-04T00:30:27.696Z,67.6687
2023-04-04T00:31:28.925Z,67.6931
2023-04-04T00:32:29.469Z,67.7280
2023-04-04T00:33:29.493Z,68.2716
2023-04-04T00:34:30.648Z,68.5331
2023-04-04T00:35:31.663Z,68.6308
2023-04-04T00:36:32.928Z,68.7426
2023-04-04T00:37:33.978Z,69.2332
2023-04-04T00:38:34.963Z,69.0967
2023-04-04T00:39:35.926Z,69.3442
2023-04-04T00:40:37.084Z,69.6111
2023-04-04T00:41:37.312Z,69.1911
2023-04-04T00:42:38.276Z,69.0168
2023-04-04T00:43:39.295Z,68.7722
2023-04-04T00:44:40.420Z,69.1925
2023-04-04T00:45:41.106Z,69.3393
2023-04-04T00:46:42.294Z,68.6702
2023-04-04T00:47:43.249Z,68.8217
2023-04-04T00:48:43.426Z,69.0292
2023-04-04T00:49:44.509Z,69.0708
2023-04-04T00:50:45.567Z,69.2679
2023-04-04T00:51:46.687Z,69.3748
2023-04-04T00:52:47.648Z,69.3980
2023-04-04T00:53:48.760Z,69.3798
2023-04-04T00:54:50.023Z,68.8496
2023-04-04T00:55:50.994Z,69.0864
2023-04-04T00:56:52.105Z,69.6186
2023-04-04T00:57:52.977Z,69.0443
2023-04-04T00:58:54.367Z,69.3193
2023-04-04T00:59:55.553Z,69.5293
2023-04-04T01:00:56.571Z,69.4729
2023-04-04T01:01:56.635Z,69.8070
2023-04-04T01:02:57.646Z,69.9303
2023-04-04T01:03:59.004Z,69.9176
2023-04-04T01:07:00.828Z,69.6179
2023-04-04T01:08:01.266Z,69.6704
2023-04-04T01:09:02.370Z,69.8290
2023-04-04T01:10:03.420Z,70.3692
2023-04-04T01:11:03.962Z,70.2685
2023-04-04T01:12:04.858Z,70.0050
2023-04-04T01:13:05.917Z,70.1781
2023-04-04T01:14:06.768Z,70.5240
2023-04-04T01:15:07.944Z,70.3615
2023-04-04T01:16:09.271Z,70.6840
2023-04-04T01:17:10.516Z,70.5906
2023-04-04T01:18:10.553Z,70.8443
2023-04-04T01:19:11.665Z,71.1383
2023-04-04T01:20:12.787Z,71.2376
2023-04-04T01:21:14.032Z,71.6182
2023-04-04T01:22:15.248Z,72.1778
2023-04-04T01:23:16.358Z,71.9656
2023-04-04T01:24:17.408Z,71.8805
2023-04-04T01:25:18.492Z,72.1449
2023-04-04T01:26:19.445Z,72.1097
2023-04-04T01:27:20.663Z,72.1255
2023-04-04T01:28:21.881Z,72.1811
2023-04-04T01:29:22.831Z,72.7648
2023-04-04T01:30:24.285Z,72.1184
2023-04-04T01:31:24.934Z,71.7998
2023-04-04T01:32:24.973Z,72.0067
2023-04-04T01:33:26.305Z,72.4048
2023-04-04T01:34:27.339Z,72.4621
2023-04-04T01:35:28.521Z,72.6482
2023-04-04T01:36:28.772Z,72.7898
2023-04-04T01:37:30.017Z,72.9815
2023-04-04T01:38:31.022Z,73.0296
2023-04-04T01:39:32.062Z,73.4151
2023-04-04T01:40:33.198Z,73.5754
2023-04-04T01:41:33.569Z,73.6000
2023-04-04T01:42:34.804Z,73.5802
2023-04-04T01:43:36.162Z,73.5959
2023-04-04T01:45:36.748Z,72.2422
2023-04-04T01:46:37.417Z,72.3584
2023-04-04T01:47:38.684Z,72.6717
2023-04-04T01:48:39.715Z,73.1568
2023-04-04T01:49:40.894Z,72.8367
2023-04-04T01:50:42.924Z,72.9251
2023-04-04T01:51:44.096Z,72.6684
2023-04-04T01:52:45.313Z,72.7979
2023-04-04T01:53:46.433Z,72.7102
2023-04-04T01:54:47.600Z,73.0801
2023-04-04T01:55:48.589Z,73.0838
2023-04-04T01:56:49.750Z,72.8532
2023-04-04T01:57:50.979Z,73.0842
2023-04-04T01:58:52.144Z,73.6436
2023-04-04T01:59:52.517Z,73.4596
2023-04-04T02:00:53.525Z,73.7066
2023-04-04T02:01:53.926Z,73.7410
2023-04-04T02:02:55.130Z,73.4711
2023-04-04T02:03:56.477Z,73.3313
2023-04-04T02:04:57.539Z,73.0871
2023-04-04T02:05:58.593Z,73.2045
2023-04-04T02:06:59.828Z,73.2444
2023-04-04T02:08:00.825Z,72.9589
2023-04-04T02:09:01.923Z,72.8837
2023-04-04T02:10:02.944Z,72.8737
2023-04-04T02:11:04.223Z,72.9850
2023-04-04T02:12:05.400Z,73.5088
2023-04-04T02:13:06.404Z,73.6363
2023-04-04T02:14:07.582Z,73.8097
2023-04-04T02:15:08.582Z,73.9715
2023-04-04T02:16:08.752Z,73.6834
2023-04-04T02:17:09.962Z,73.6705
2023-04-04T02:18:10.215Z,73.9559
2023-04-04T02:19:11.320Z,73.6460
2023-04-04T02:20:12.379Z,73.6414
2023-04-04T02:21:13.552Z,73.9062
2023-04-04T02:22:14.700Z,74.2709
2023-04-04T02:23:15.872Z,73.9716
2023-04-04T02:24:17.047Z,73.9281
2023-04-04T02:25:18.096Z,74.4040
2023-04-04T02:26:19.172Z,74.3476
2023-04-04T02:27:20.249Z,73.9058
2023-04-04T02:28:21.470Z,73.7792
2023-04-04T02:29:22.584Z,74.0233
2023-04-04T02:30:23.695Z,74.1573
2023-04-04T02:31:23.814Z,74.4696
2023-04-04T02:32:25.065Z,74.6552
2023-04-04T02:33:25.086Z,74.8183
2023-04-04T02:34:26.224Z,75.0610
2023-04-04T02:35:27.418Z,75.1273
2023-04-04T02:36:28.767Z,75.0473
2023-04-04T02:37:30.212Z,75.2159
2023-04-04T02:39:31.131Z,74.6937
2023-04-04T02:40:32.214Z,74.6995
2023-04-04T02:41:33.192Z,74.5809
2023-04-04T02:42:34.479Z,74.8203
2023-04-04T02:43:35.664Z,74.6631
2023-04-04T02:44:36.677Z,74.5761
2023-04-04T02:45:37.904Z,74.4338
2023-04-04T02:46:38.109Z,74.6024
2023-04-04T02:47:38.077Z,74.7837
2023-04-04T02:48:38.250Z,74.8952
2023-04-04T02:49:39.491Z,74.7020
2023-04-04T02:50:40.935Z,74.6438
2023-04-04T02:51:40.838Z,74.4309
2023-04-04T02:52:42.086Z,75.1055
2023-04-04T02:53:43.145Z,74.5017
2023-04-04T02:54:44.289Z,74.3226
2023-04-04T02:55:45.366Z,75.0335
2023-04-04T02:56:46.322Z,75.0070
2023-04-04T02:57:47.685Z,74.8000
2023-04-04T02:58:48.750Z,75.0021
2023-04-04T02:59:48.924Z,75.6173
2023-04-04T03:00:50.380Z,75.5832
2023-04-04T03:01:51.604Z,75.5871
2023-04-04T03:02:52.465Z,75.8392
2023-04-04T03:03:52.837Z,75.6002
2023-04-04T03:04:52.843Z,75.3093
2023-04-04T03:05:53.995Z,74.9995
2023-04-04T03:06:55.068Z,75.5032
2023-04-04T03:07:56.466Z,75.8871
2023-04-04T03:08:57.444Z,75.7772
2023-04-04T03:09:58.585Z,75.3856
2023-04-04T03:10:59.701Z,75.4092
2023-04-04T03:12:00.789Z,75.1678
2023-04-04T03:13:02.063Z,75.2035
2023-04-04T03:14:03.278Z,75.4781
2023-04-04T03:15:04.464Z,75.4021
2023-04-04T03:16:05.804Z,75.4861
2023-04-04T03:17:06.979Z,74.7130
2023-04-04T03:18:07.927Z,74.6698
2023-04-04T03:19:08.899Z,75.3449
2023-04-04T03:20:09.576Z,75.4861
2023-04-04T03:21:09.165Z,75.2449
2023-04-04T03:22:10.416Z,75.6450
2023-04-04T03:23:11.565Z,75.4913
2023-04-04T03:24:12.618Z,75.4721
2023-04-04T03:25:12.661Z,75.2434
2023-04-04T03:26:13.694Z,74.8698
2023-04-04T03:27:14.831Z,74.6307
2023-04-04T03:28:15.943Z,74.7547
2023-04-04T03:29:17.069Z,74.8237
2023-04-04T03:30:17.167Z,75.0492
2023-04-04T03:31:18.336Z,74.9544
2023-04-04T03:32:18.346Z,74.9775
2023-04-04T03:33:19.020Z,74.5092
2023-04-04T03:34:20.253Z,75.2248
2023-04-04T03:35:21.331Z,75.3711
2023-04-04T03:36:21.508Z,75.4082
2023-04-04T03:37:22.192Z,75.2194
2023-04-04T03:38:23.211Z,75.0726
2023-04-04T03:40:24.099Z,75.0982
2023-04-04T03:41:25.475Z,75.3398
2023-04-04T03:42:26.709Z,75.5284
2023-04-04T03:43:28.053Z,75.5341
2023-04-04T03:44:29.252Z,75.4032
2023-04-04T03:45:30.365Z,75.2138
2023-04-04T03:46:30.670Z,75.1532
2023-04-04T03:47:31.879Z,74.6619
2023-04-04T03:48:31.964Z,74.6802
2023-04-04T03:49:33.155Z,74.9018
2023-04-04T03:50:34.375Z,74.9831
2023-04-04T03:51:34.921Z,75.4520
2023-04-04T03:52:36.446Z,75.7230
2023-04-04T03:54:36.626Z,75.1049
2023-04-04T03:55:37.879Z,74.7199
2023-04-04T03:56:39.048Z,74.9076
2023-04-04T03:57:40.279Z,75.0301
2023-04-04T03:58:41.317Z,75.0223
2023-04-04T03:59:41.493Z,74.7168
2023-04-04T04:00:43.385Z,74.7955
2023-04-04T04:01:44.503Z,74.7873
2023-04-04T04:02:44.864Z,75.1615
2023-04-04T04:03:45.206Z,74.5670
2023-04-04T04:04:45.626Z,74.6254
2023-04-04T04:05:46.732Z,74.6813
2023-04-04T04:06:48.010Z,74.8663
2023-04-04T04:07:49.129Z,74.7032
2023-04-04T04:08:50.022Z,75.0683
2023-04-04T04:09:51.366Z,75.5824
2023-04-04T04:10:51.497Z,74.9517
2023-04-04T04:11:52.802Z,74.8516
2023-04-04T04:12:53.892Z,75.0142
2023-04-04T04:13:55.100Z,74.9555
2023-04-04T04:14:55.168Z,74.9407
2023-04-04T04:15:55.451Z,74.8112
2023-04-04T04:17:56.157Z,75.3530
2023-04-04T04:18:56.176Z,74.8403
2023-04-04T04:19:57.186Z,74.4041
2023-04-04T04:20:57.768Z,74.3815
2023-04-04T04:21:58.898Z,74.4773
2023-04-04T04:22:58.926Z,74.2073
2023-04-04T04:24:00.032Z,74.0676
2023-04-04T04:25:01.172Z,73.9205
2023-04-04T04:26:02.346Z,74.3589
2023-04-04T04:27:03.382Z,74.4356
2023-04-04T04:29:03.651Z,74.1537
2023-04-04T04:30:03.887Z,74.2487
2023-04-04T04:31:05.059Z,74.1799
2023-04-04T04:32:05.160Z,74.3948
2023-04-04T04:33:05.697Z,74.4747
2023-04-04T04:34:06.933Z,74.5488
2023-04-04T04:35:06.967Z,74.7628
2023-04-04T04:37:07.266Z,74.4981
2023-04-04T04:38:08.344Z,74.7891
2023-04-04T04:39:09.593Z,74.6705
2023-04-04T04:40:10.738Z,74.4773
2023-04-04T04:41:10.865Z,74.0280
2023-04-04T04:42:12.176Z,73.8495
2023-04-04T04:43:13.345Z,74.3769
2023-04-04T04:44:13.385Z,74.1467
2023-04-04T04:45:14.466Z,74.3974
2023-04-04T04:46:14.679Z,74.1750
2023-04-04T04:47:14.701Z,74.5985
2023-04-04T04:48:14.870Z,74.4985
2023-04-04T04:49:16.185Z,74.7553
2023-04-04T04:50:16.290Z,75.0359
2023-04-04T04:51:17.474Z,74.9355
2023-04-04T04:52:18.781Z,75.2100
2023-04-04T04:53:19.910Z,75.0384
2023-04-04T04:54:21.178Z,75.2397
2023-04-04T04:55:22.379Z,75.5154
2023-04-04T04:56:23.505Z,75.6503
2023-04-04T04:57:24.742Z,75.5327
2023-04-04T04:58:27.488Z,75.9646
2023-04-04T04:59:26.539Z,76.0690
2023-04-04T05:00:26.897Z,75.8420
2023-04-04T05:01:28.309Z,76.2518
2023-04-04T05:02:28.684Z,76.1140
2023-04-04T05:03:29.597Z,76.0361
2023-04-04T05:04:29.954Z,75.9428
2023-04-04T05:05:31.122Z,75.4288
2023-04-04T05:06:32.384Z,75.6757
2023-04-04T05:07:33.699Z,76.0971
2023-04-04T05:08:34.872Z,76.1650
2023-04-04T05:09:34.833Z,76.1745
2023-04-04T05:10:35.957Z,76.3207
2023-04-04T05:11:37.267Z,76.2023
2023-04-04T05:12:38.433Z,76.4015
2023-04-04T05:13:39.703Z,76.8786
2023-04-04T05:14:41.102Z,76.4833
2023-04-04T05:15:42.329Z,76.4890
2023-04-04T05:16:42.333Z,76.1473
2023-04-04T05:17:42.486Z,75.9729
2023-04-04T05:18:42.534Z,75.8315
2023-04-04T05:19:43.714Z,76.4835
2023-04-04T05:20:44.498Z,75.9719
2023-04-04T05:21:45.567Z,76.1485
2023-04-04T05:22:46.792Z,76.0826
2023-04-04T05:23:47.985Z,75.9132
2023-04-04T05:24:49.221Z,75.8775
2023-04-04T05:25:50.550Z,75.9739
2023-04-04T05:26:51.647Z,75.9650
2023-04-04T05:27:52.938Z,75.8018
2023-04-04T05:28:54.129Z,75.7985
2023-04-04T05:29:55.539Z,76.0564
2023-04-04T05:30:57.002Z,76.0904
2023-04-04T05:31:56.147Z,76.2466
2023-04-04T05:32:56.909Z,75.7868
2023-04-04T05:33:58.125Z,75.9650
2023-04-04T05:34:59.501Z,76.1203
2023-04-04T05:36:00.069Z,76.2130
2023-04-04T05:37:00.146Z,76.7521
2023-04-04T05:38:01.380Z,76.6619
2023-04-04T05:39:02.722Z,75.8043
2023-04-04T05:40:04.053Z,76.1109
2023-04-04T05:41:05.173Z,76.5511
2023-04-04T05:42:05.224Z,76.1182
2023-04-04T05:43:06.555Z,76.2677
2023-04-04T05:44:07.808Z,75.9383
2023-04-04T05:45:07.801Z,75.6390
2023-04-04T05:46:09.151Z,75.5900
2023-04-04T05:47:09.652Z,75.7768
2023-04-04T05:48:09.815Z,76.0711
2023-04-04T05:49:09.884Z,76.4765
2023-04-04T05:50:09.869Z,76.3973
2023-04-04T05:52:10.872Z,76.0180
2023-04-04T05:53:11.067Z,75.9904
2023-04-04T05:54:11.050Z,75.6091
2023-04-04T05:55:12.389Z,76.1487
2023-04-04T05:56:13.541Z,75.8175
2023-04-04T05:57:14.875Z,75.5938
2023-04-04T05:58:15.549Z,75.2300
2023-04-04T05:59:16.848Z,75.0210
2023-04-04T06:00:17.159Z,74.7923
2023-04-04T06:01:18.461Z,75.5119
2023-04-04T06:02:18.541Z,75.2174
2023-04-04T06:03:20.485Z,75.2070
2023-04-04T06:04:19.831Z,75.4517
2023-04-04T06:05:21.080Z,74.9288
2023-04-04T06:06:21.417Z,74.8059
2023-04-04T06:07:21.475Z,74.3676
2023-04-04T06:08:22.838Z,73.8521
2023-04-04T06:09:23.842Z,74.0502
2023-04-04T06:10:23.932Z,74.1011
2023-04-04T06:11:24.698Z,74.1863
2023-04-04T06:12:25.939Z,73.8251
2023-04-04T06:13:26.056Z,73.2542
2023-04-04T06:14:26.053Z,73.6353
2023-04-04T06:15:26.104Z,73.0714
2023-04-04T06:16:26.209Z,73.2544
2023-04-04T06:17:26.316Z,73.2010
2023-04-04T06:18:26.574Z,72.8953
2023-04-04T06:19:26.594Z,72.7357
2023-04-04T06:20:27.826Z,73.1312
2023-04-04T06:21:27.865Z,72.8945
2023-04-04T06:22:29.087Z,73.0009
2023-04-04T06:23:30.401Z,72.3266
2023-04-04T06:24:31.678Z,72.4870
2023-04-04T06:25:31.736Z,72.8338
2023-04-04T06:26:31.990Z,72.4446
2023-04-04T06:27:31.973Z,72.0181
2023-04-04T06:28:31.997Z,72.1257
2023-04-04T06:29:32.168Z,72.2568
2023-04-04T06:30:33.574Z,72.0066
2023-04-04T06:31:33.998Z,72.4740
2023-04-04T06:32:34.246Z,72.9976
2023-04-04T06:33:34.317Z,72.0484
2023-04-04T06:34:34.328Z,71.8681
2023-04-04T06:35:35.540Z,72.0103
2023-04-04T06:36:36.087Z,72.4173
2023-04-04T06:37:37.296Z,71.7293
2023-04-04T06:38:37.343Z,71.6516
2023-04-04T06:39:38.510Z,71.9885
2023-04-04T06:40:38.816Z,71.5380
2023-04-04T06:41:38.900Z,72.0700
2023-04-04T06:43:40.042Z,71.8921
2023-04-04T06:44:41.496Z,72.0309
2023-04-04T06:45:42.657Z,71.5061
2023-04-04T06:46:42.734Z,71.5065
2023-04-04T06:47:43.051Z,71.9810
2023-04-04T06:49:44.122Z,71.5615
2023-04-04T06:50:44.938Z,71.3213
2023-04-04T06:51:46.285Z,71.8062
2023-04-04T06:52:47.231Z,71.5988
2023-04-04T06:53:48.541Z,70.9236
2023-04-04T06:54:49.740Z,71.5685
2023-04-04T06:55:51.123Z,72.1907
2023-04-04T06:56:52.379Z,71.7431
2023-04-04T06:57:52.437Z,71.8997
2023-04-04T06:58:53.839Z,71.6185
2023-04-04T06:59:53.905Z,71.7237
2023-04-04T07:00:54.286Z,71.3608
2023-04-04T07:01:54.359Z,70.6330
2023-04-04T07:02:54.924Z,70.8152
2023-04-04T07:03:55.075Z,70.7689
2023-04-04T07:04:56.390Z,70.4463
2023-04-04T07:05:57.561Z,70.4960
2023-04-04T07:06:57.584Z,69.9310
2023-04-04T07:07:58.977Z,70.1534
2023-04-04T07:08:59.233Z,70.4212
2023-04-04T07:10:00.135Z,70.3120
2023-04-04T07:11:00.808Z,70.0014
2023-04-04T07:12:00.886Z,69.3332
2023-04-04T07:13:02.079Z,68.5509
2023-04-04T07:15:03.127Z,69.2115
2023-04-04T07:16:03.487Z,69.6820
2023-04-04T07:17:13.708Z,69.6080
2023-04-04T07:18:04.824Z,68.9581
2023-04-04T07:19:05.080Z,68.9647
2023-04-04T07:20:06.248Z,69.8536
2023-04-04T07:21:06.606Z,69.1886
2023-04-04T07:22:07.778Z,68.9215
2023-04-04T07:23:07.818Z,69.1122
2023-04-04T07:24:09.269Z,69.2458
2023-04-04T07:25:10.506Z,69.0796
2023-04-04T07:26:10.636Z,69.6403
2023-04-04T07:27:11.814Z,69.3060
2023-04-04T07:28:15.555Z,69.1780
2023-04-04T07:29:15.652Z,68.6307
2023-04-04T07:30:16.931Z,68.4415
2023-04-04T07:31:17.040Z,67.6730
2023-04-04T07:32:17.552Z,68.1262
2023-04-04T07:33:17.655Z,69.2134
2023-04-04T07:34:18.932Z,69.0623
2023-04-04T07:35:18.953Z,68.4656
2023-04-04T07:36:19.077Z,69.3110
2023-04-04T07:37:19.091Z,68.6309
2023-04-04T07:38:20.425Z,68.8615
2023-04-04T07:39:21.173Z,68.9164
2023-04-04T07:40:22.532Z,68.8289
2023-04-04T07:41:22.551Z,68.1767
2023-04-04T07:42:23.902Z,68.2782
2023-04-04T07:43:25.096Z,68.3023
2023-04-04T07:44:25.160Z,68.1300
2023-04-04T07:45:26.292Z,67.2729
2023-04-04T07:46:26.837Z,67.6396
2023-04-04T07:47:27.773Z,67.1566
2023-04-04T07:48:28.097Z,67.8527
2023-04-04T07:49:27.929Z,68.1166
2023-04-04T07:51:28.999Z,67.9634
2023-04-04T07:52:29.039Z,68.3692
2023-04-04T07:53:30.327Z,68.5942
2023-04-04T07:54:31.495Z,68.0710
2023-04-04T07:55:31.696Z,67.8618
2023-04-04T07:56:32.948Z,67.4573
2023-04-04T07:57:33.065Z,66.9979
2023-04-04T07:58:34.385Z,67.0241
2023-04-04T07:59:34.555Z,66.0503
2023-04-04T08:00:35.839Z,66.9087
2023-04-04T08:01:36.232Z,66.6331
2023-04-04T08:02:37.222Z,65.9066
2023-04-04T08:03:38.440Z,66.5017
2023-04-04T08:04:38.876Z,65.7343
2023-04-04T08:05:38.874Z,65.5086
2023-04-04T08:06:39.000Z,65.3391
2023-04-04T08:07:39.107Z,65.5256
2023-04-04T08:08:39.205Z,64.5155
2023-04-04T08:09:39.360Z,64.6544
2023-04-04T08:10:39.636Z,65.3644
2023-04-04T08:11:39.784Z,66.0794
2023-04-04T08:12:39.959Z,65.2007
2023-04-04T08:13:39.966Z,65.3474
2023-04-04T08:14:40.077Z,64.3750
2023-04-04T08:15:41.486Z,63.7909
2023-04-04T08:16:42.263Z,65.2151
2023-04-04T08:17:42.320Z,64.3437
2023-04-04T08:18:42.595Z,63.4584
2023-04-04T08:19:42.601Z,63.5097
2023-04-04T08:20:43.172Z,63.0205
2023-04-04T08:21:44.453Z,62.8602
2023-04-04T08:22:44.621Z,63.2530
2023-04-04T08:23:45.913Z,62.9245
2023-04-04T08:24:46.068Z,63.0383
2023-04-04T08:25:47.349Z,63.1544
2023-04-04T08:27:02.164Z,63.0376
2023-04-04T08:27:52.913Z,63.1976
2023-04-04T08:28:53.685Z,63.2734
2023-04-04T08:31:55.613Z,63.1763
2023-04-04T08:32:56.001Z,63.3430
2023-04-04T08:33:56.784Z,63.3623
2023-04-04T08:34:57.085Z,63.4320
2023-04-04T08:35:57.260Z,62.9158
2023-04-04T08:36:57.558Z,62.8686
2023-04-04T08:37:57.567Z,63.0772
2023-04-04T08:38:57.594Z,63.7863
2023-04-04T08:39:57.587Z,64.0427
2023-04-04T08:40:57.707Z,62.5641
2023-04-04T08:41:58.384Z,62.8209
2023-04-04T08:42:59.657Z,61.8479
2023-04-04T08:43:59.779Z,61.9412
2023-04-04T08:45:00.096Z,61.6333
2023-04-04T08:46:00.160Z,62.3339
2023-04-04T08:47:00.468Z,60.1603
2023-04-04T08:48:00.962Z,60.4159
2023-04-04T08:49:02.293Z,60.3314
2023-04-04T08:50:02.598Z,60.2253
2023-04-04T08:51:03.291Z,59.5820
2023-04-04T08:52:03.481Z,60.1872
2023-04-04T08:53:04.786Z,60.0845
2023-04-04T08:54:04.866Z,60.8096
2023-04-04T08:55:06.134Z,60.3511
2023-04-04T08:56:06.252Z,60.7354
2023-04-04T08:57:07.589Z,59.8732
2023-04-04T08:58:07.748Z,59.5737
2023-04-04T08:59:08.143Z,59.5625
2023-04-04T09:00:08.376Z,59.8494
2023-04-04T09:01:08.992Z,58.9010
2023-04-04T09:02:09.419Z,58.6348
2023-04-04T09:03:10.070Z,59.0606
2023-04-04T09:04:10.499Z,58.6586
2023-04-04T09:05:11.277Z,57.8826
2023-04-04T09:06:11.443Z,57.5329
2023-04-04T09:07:11.491Z,58.5317
2023-04-04T09:08:11.757Z,58.8358
2023-04-04T09:11:13.534Z,59.1185
2023-04-04T09:12:13.625Z,59.0357
2023-04-04T09:13:19.186Z,57.9890
2023-04-04T09:14:19.303Z,58.8894
2023-04-04T09:15:19.558Z,58.0335
2023-04-04T09:16:19.720Z,58.2904
2023-04-04T09:17:19.792Z,57.8114
2023-04-04T09:18:20.125Z,57.9462
2023-04-04T09:19:21.467Z,58.1387
2023-04-04T09:20:22.192Z,57.6778
2023-04-04T09:21:23.012Z,56.6001
2023-04-04T09:22:23.310Z,56.9377
2023-04-04T09:23:23.415Z,56.7207
2023-04-04T09:24:24.230Z,56.9243
2023-04-04T09:25:25.590Z,57.1454
2023-04-04T09:26:26.494Z,56.8705
2023-04-04T09:27:26.682Z,56.3101
2023-04-04T09:28:26.808Z,56.2776
2023-04-04T09:29:27.188Z,55.8722
2023-04-04T09:30:27.352Z,55.9941
2023-04-04T09:31:27.957Z,56.0707
2023-04-04T09:32:28.182Z,56.3261
2023-04-04T09:33:28.680Z,56.4889
2023-04-04T09:34:29.976Z,56.4345
2023-04-04T09:35:30.254Z,56.8093
2023-04-04T09:36:30.377Z,56.1132
2023-04-04T09:37:30.876Z,55.8858
2023-04-04T09:38:31.668Z,56.2229
2023-04-04T09:39:31.891Z,55.9257
2023-04-04T09:40:32.273Z,57.2595
2023-04-04T09:41:32.699Z,56.3785
2023-04-04T09:42:33.072Z,55.5431
2023-04-04T09:43:35.040Z,56.1470
2023-04-04T09:44:34.418Z,56.1839
2023-04-04T09:45:34.481Z,54.9733
2023-04-04T09:46:34.753Z,54.8637
2023-04-04T09:47:35.422Z,56.0647
2023-04-04T09:48:35.709Z,55.7581
2023-04-04T09:49:36.259Z,55.6623
2023-04-04T09:50:37.961Z,56.6135
2023-04-04T09:51:38.167Z,56.5637
2023-04-04T09:52:38.293Z,54.1147
2023-04-04T09:53:38.502Z,54.4972
2023-04-04T09:54:48.434Z,55.1769
2023-04-04T09:55:44.565Z,55.0594
2023-04-04T09:56:44.876Z,54.1770
2023-04-04T09:57:46.118Z,54.4404
2023-04-04T09:59:02.744Z,54.3052
2023-04-04T09:59:52.270Z,53.6027
2023-04-04T10:00:52.617Z,53.3212
2023-04-04T10:01:52.833Z,53.5366
2023-04-04T10:02:53.414Z,53.3810
2023-04-04T10:03:53.705Z,54.0497
2023-04-04T10:05:05.776Z,54.1277
2023-04-04T10:05:58.123Z,55.4233
2023-04-04T10:06:58.226Z,53.8488
2023-04-04T10:07:59.573Z,53.1863
2023-04-04T10:08:59.914Z,53.2503
2023-04-04T10:10:01.258Z,53.9340
2023-04-04T10:11:10.629Z,54.0737
2023-04-04T10:12:06.132Z,53.7228
2023-04-04T10:13:06.316Z,53.1902
2023-04-04T10:14:06.625Z,53.1066
2023-04-04T10:15:06.871Z,53.9867
2023-04-04T10:16:08.116Z,54.3252
2023-04-04T10:17:09.238Z,53.1745
2023-04-04T10:18:08.695Z,53.9221
2023-04-04T10:19:08.966Z,52.5412
2023-04-04T10:20:10.313Z,51.6817
2023-04-04T10:21:15.840Z,51.5246
2023-04-04T10:22:11.774Z,51.1031
2023-04-04T10:23:12.137Z,52.0550
2023-04-04T10:24:12.274Z,52.5257
2023-04-04T10:25:12.640Z,51.7694
2023-04-04T10:26:13.094Z,51.4985
2023-04-04T10:27:13.157Z,52.2494
2023-04-04T10:28:13.372Z,52.0435
2023-04-04T10:29:14.033Z,50.0338
2023-04-04T10:30:14.160Z,50.3583
2023-04-04T10:31:14.410Z,51.1846
2023-04-04T10:32:15.035Z,50.4881
2023-04-04T10:33:15.638Z,50.4193
2023-04-04T10:34:15.729Z,51.4158
2023-04-04T10:35:16.024Z,51.2185
2023-04-04T10:36:17.350Z,51.7081
2023-04-04T10:37:17.802Z,51.6263
2023-04-04T10:38:18.042Z,52.1422
2023-04-04T10:39:18.220Z,51.4068
2023-04-04T10:40:18.466Z,51.3456
2023-04-04T10:41:19.726Z,50.9847
2023-04-04T10:42:19.960Z,50.1935
2023-04-04T10:43:21.306Z,50.9205
2023-04-04T10:44:21.632Z,50.8675
2023-04-04T10:45:22.593Z,50.9323
2023-04-04T10:46:23.171Z,50.3772
2023-04-04T10:47:23.647Z,50.5152
2023-04-04T10:48:24.799Z,50.3202
2023-04-04T10:49:25.044Z,50.5412
2023-04-04T10:50:26.199Z,50.9202
2023-04-04T10:51:26.626Z,50.3743
2023-04-04T10:52:26.912Z,50.2616
2023-04-04T10:53:27.148Z,50.1178
2023-04-04T10:54:27.233Z,49.8829
2023-04-04T10:55:27.568Z,50.1835
2023-04-04T10:56:28.906Z,49.4855
2023-04-04T10:57:29.571Z,49.7236
2023-04-04T10:58:29.735Z,49.6837
2023-04-04T10:59:29.930Z,49.6479
2023-04-04T11:00:30.098Z,50.0016
2023-04-04T11:01:30.555Z,49.5758
2023-04-04T11:02:30.708Z,48.4960
2023-04-04T11:03:31.271Z,47.8171
2023-04-04T11:04:31.823Z,48.4564
2023-04-04T11:05:32.720Z,49.1751
2023-04-04T11:06:33.268Z,48.8995
2023-04-04T11:07:33.523Z,47.6185
2023-04-04T11:08:33.898Z,46.9467
2023-04-04T11:09:34.235Z,48.0406
2023-04-04T11:10:34.556Z,46.6471
2023-04-04T11:11:35.511Z,47.0767
2023-04-04T11:12:35.830Z,46.9049
2023-04-04T11:13:37.109Z,45.5506
2023-04-04T11:14:37.295Z,45.9444
2023-04-04T11:15:37.514Z,46.8514
2023-04-04T11:16:37.680Z,46.9347
2023-04-04T11:17:38.273Z,45.2026
2023-04-04T11:18:39.248Z,45.5084
2023-04-04T11:19:39.526Z,46.9567
2023-04-04T11:20:40.200Z,45.7077
2023-04-04T11:21:40.342Z,45.0282
2023-04-04T11:22:40.701Z,44.6092
2023-04-04T11:23:40.816Z,44.9612
2023-04-04T11:24:41.131Z,45.4641
2023-04-04T11:25:41.411Z,45.1229
2023-04-04T11:26:42.227Z,45.7399
2023-04-04T11:27:42.473Z,45.7171
2023-04-04T11:28:42.884Z,46.1055
2023-04-04T11:29:42.993Z,47.4418
2023-04-04T11:30:43.351Z,45.6970
2023-04-04T11:31:43.490Z,45.1728
2023-04-04T11:32:50.126Z,45.3751
2023-04-04T11:33:44.379Z,45.2403
2023-04-04T11:34:44.776Z,45.2008
2023-04-04T11:35:44.986Z,45.5598
2023-04-04T11:36:45.767Z,46.2304
2023-04-04T11:37:45.795Z,45.6929
2023-04-04T11:38:46.035Z,44.7461
2023-04-04T11:39:46.184Z,43.2921
2023-04-04T11:40:46.542Z,43.8528
2023-04-04T11:41:46.606Z,42.5710
2023-04-04T11:42:46.978Z,41.6069
2023-04-04T11:43:47.036Z,41.0122
2023-04-04T11:44:47.234Z,41.6176
2023-04-04T11:45:48.216Z,41.7194
2023-04-04T11:46:50.903Z,42.3158
2023-04-04T11:47:48.760Z,42.9204
2023-04-04T11:48:49.124Z,43.5742
2023-04-04T11:49:49.167Z,43.7296
2023-04-04T11:50:49.568Z,43.7013
2023-04-04T11:51:49.671Z,42.8038
2023-04-04T11:52:50.862Z,40.8301
2023-04-04T11:53:50.988Z,39.5579
2023-04-04T11:54:51.373Z,39.0682
2023-04-04T11:55:51.511Z,38.7808
2023-04-04T11:56:51.848Z,38.3736
2023-04-04T11:57:51.951Z,37.9739
2023-04-04T11:59:08.572Z,36.3203
2023-04-04T11:59:59.049Z,35.6705
2023-04-04T12:00:59.431Z,35.4846
2023-04-04T12:01:59.490Z,35.7897
2023-04-04T12:03:00.528Z,35.3562
2023-04-04T12:04:01.247Z,35.3500
2023-04-04T12:05:02.318Z,35.6992
2023-04-04T12:06:03.163Z,34.7174
2023-04-04T12:07:03.685Z,35.1558
2023-04-04T12:08:03.742Z,35.0057
2023-04-04T12:09:03.981Z,33.6595
2023-04-04T12:10:04.783Z,34.5217
2023-04-04T12:11:05.091Z,35.0436
2023-04-04T12:12:05.281Z,34.8619
2023-04-04T12:13:05.656Z,34.2333
2023-04-04T12:14:05.726Z,33.2180
2023-04-04T12:15:17.492Z,34.9575
2023-04-04T12:16:11.325Z,33.4140
2023-04-04T12:17:11.789Z,34.3536
2023-04-04T12:18:12.003Z,36.5264
2023-04-04T12:19:12.279Z,33.5583
2023-04-04T12:20:12.313Z,34.6514
2023-04-04T12:21:12.534Z,35.0329
2023-04-04T12:22:12.736Z,35.0158
2023-04-04T12:23:12.939Z,34.3721
2023-04-04T12:24:13.002Z,34.4854
2023-04-04T12:25:13.186Z,34.6865
2023-04-04T12:26:13.585Z,34.8857
2023-04-04T12:27:13.818Z,35.7215
2023-04-04T12:28:13.990Z,35.2692
2023-04-04T12:29:14.682Z,34.4814
2023-04-04T12:30:14.917Z,34.1537
2023-04-04T12:31:15.352Z,35.7087
2023-04-04T12:32:15.953Z,34.3145